Time;durP1;ratioP1;P1;durP2;ratioP2;P2;SDS_P1;SDS_P2;PMS_P1;PMS_P2;Temp;Humidity;BMP_temperature;BMP_pressure;BME280_temperature;BME280_humidity;BME280_pressure;Samples;Min_cycle;Max_cycle;Signal;HPM_P1;HPM_P2
2023/08/23 00:02:21;;;;;;;9.10;5.10;;;;;;;19.27;67.01;100640.54;108820;1285;23771;-84
2023/08/23 00:05:17;;;;;;;9.50;5.40;;;;;;;19.20;66.87;100626.88;104501;1284;22454;-85
2023/08/23 00:08:14;;;;;;;8.90;4.70;;;;;;;19.27;66.93;100650.55;108677;1284;23684;-84
2023/08/23 00:10:55;;;;;;;7.50;4.70;;;;;;;19.23;66.69;100657.51;108841;1284;24556;-85
2023/08/23 00:13:39;;;;;;;6.90;5.20;;;;;;;19.22;66.48;100661.31;108941;1279;22462;-85
2023/08/23 00:16:54;;;;;;;7.10;4.40;;;;;;;19.16;66.36;100659.96;109478;1274;22086;-85
2023/08/23 00:20:32;;;;;;;7.30;4.50;;;;;;;19.08;66.29;100656.92;109504;1273;21984;-85
2023/08/23 00:28:22;;;;;;;;;;;;;;;;;;;;;
2023/08/23 00:32:18;;;;;;;9.70;5.60;;;;;;;18.80;66.60;100657.30;108776;1283;22012;-86
2023/08/23 00:35:51;;;;;;;8.40;4.90;;;;;;;18.76;66.62;100659.13;108884;1280;21989;-87
2023/08/23 00:38:48;;;;;;;8.20;4.90;;;;;;;18.76;66.68;100664.23;109397;1277;22236;-87
2023/08/23 00:42:38;;;;;;;7.70;4.90;;;;;;;18.75;66.58;100662.85;109389;1274;22250;-89
2023/08/23 00:46:07;;;;;;;6.40;4.30;;;;;;;18.67;66.53;100656.71;109515;1274;22002;-83
2023/08/23 00:49:35;;;;;;;11.80;5.30;;;;;;;18.59;66.71;100660.22;109512;1274;21981;-86
2023/08/23 00:53:29;;;;;;;13.30;6.00;;;;;;;18.53;67.01;100655.34;109532;1271;22679;-85
2023/08/23 00:57:05;;;;;;;7.80;5.30;;;;;;;18.49;67.03;100665.80;109203;1279;21986;-83
2023/08/23 01:00:26;;;;;;;;;;;;;;;;;;;;;
2023/08/23 01:04:11;;;;;;;10.80;5.30;;;;;;;18.37;67.16;100667.70;109561;1274;22069;-84
2023/08/23 01:08:01;;;;;;;9.10;5.50;;;;;;;18.34;67.26;100677.57;109274;1272;23044;-86
2023/08/23 01:11:55;;;;;;;;;;;;;;;;;;;;;
2023/08/23 01:15:31;;;;;;;;;;;;;;;;;;;;;
2023/08/23 01:19:14;;;;;;;11.60;5.60;;;;;;;18.19;67.73;100661.66;108876;1283;23048;-86
2023/08/23 01:22:15;;;;;;;8.90;5.10;;;;;;;18.15;67.73;100661.51;108827;1282;21996;-85
2023/08/23 01:25:41;;;;;;;9.60;4.80;;;;;;;18.13;67.75;100660.27;108809;1282;21996;-85
2023/08/23 01:29:13;;;;;;;;;;;;;;;;;;;;;
2023/08/23 01:32:54;;;;;;;7.30;4.90;;;;;;;18.00;67.96;100655.80;108234;1287;23088;-87
2023/08/23 01:36:36;;;;;;;;;;;;;;;;;;;;;
2023/08/23 01:39:15;;;;;;;7.90;5.00;;;;;;;17.91;68.15;100657.40;108447;1288;23101;-84
2023/08/23 01:41:45;;;;;;;11.50;6.10;;;;;;;17.91;68.19;100655.67;108122;1289;24248;-85
2023/08/23 01:44:56;;;;;;;7.50;5.50;;;;;;;17.89;68.12;100658.08;108621;1284;21992;-88
2023/08/23 01:48:21;;;;;;;9.30;5.60;;;;;;;17.75;68.65;100642.23;109044;1279;22053;-86
2023/08/23 01:51:25;;;;;;;;;;;;;;;;;;;;;
2023/08/23 01:54:58;;;;;;;;;;;;;;;;;;;;;
2023/08/23 01:58:26;;;;;;;11.50;6.20;;;;;;;17.76;68.82;100652.72;108865;1282;21882;-86
2023/08/23 02:01:27;;;;;;;10.30;5.60;;;;;;;17.73;68.73;100654.84;108997;1278;21995;-86
2023/08/23 02:05:24;;;;;;;12.00;5.60;;;;;;;17.67;68.87;100657.52;109281;1275;22954;-88
2023/08/23 02:09:01;;;;;;;;;;;;;;;;;;;;;
2023/08/23 02:12:34;;;;;;;9.60;5.60;;;;;;;17.55;69.24;100663.90;108980;1281;22005;-86
2023/08/23 02:15:57;;;;;;;10.10;6.60;;;;;;;17.53;69.24;100664.72;109169;1273;22020;-87
2023/08/23 02:19:28;;;;;;;14.10;6.70;;;;;;;17.50;69.33;100675.10;109420;1273;22502;-89
2023/08/23 02:22:37;;;;;;;11.60;7.00;;;;;;;17.36;69.47;100662.77;108842;1284;22002;-86
2023/08/23 02:26:00;;;;;;;11.00;6.20;;;;;;;17.41;69.51;100673.73;108704;1285;23058;-83
2023/08/23 02:29:26;;;;;;;;;;;;;;;;;;;;;
2023/08/23 02:33:13;;;;;;;9.50;6.90;;;;;;;17.33;69.79;100669.12;108663;1285;21995;-83
2023/08/23 02:36:58;;;;;;;9.70;5.80;;;;;;;17.31;69.99;100674.30;108860;1282;23727;-86
2023/08/23 02:40:20;;;;;;;;;;;;;;;;;;;;;
2023/08/23 02:43:37;;;;;;;14.20;7.50;;;;;;;17.26;70.20;100669.38;108332;1291;23050;-87
2023/08/23 02:46:24;;;;;;;9.00;6.10;;;;;;;17.26;70.14;100673.41;108603;1282;21990;-85
2023/08/23 02:49:29;;;;;;;12.60;5.70;;;;;;;17.25;70.08;100672.06;108877;1282;21994;-83
2023/08/23 02:53:13;;;;;;;9.80;6.70;;;;;;;17.21;70.31;100667.35;109140;1273;22024;-85
2023/08/23 02:56:23;;;;;;;13.10;6.30;;;;;;;17.18;70.15;100662.06;109460;1272;21981;-85
2023/08/23 02:59:17;;;;;;;9.60;7.00;;;;;;;17.14;69.80;100662.49;109447;1272;23793;-85
2023/08/23 03:02:57;;;;;;;11.70;6.30;;;;;;;17.05;69.84;100660.59;109356;1274;21984;-84
2023/08/23 03:06:15;;;;;;;13.90;6.50;;;;;;;16.99;70.01;100664.30;109525;1272;22082;-86
2023/08/23 03:09:15;;;;;;;7.90;5.70;;;;;;;16.94;70.25;100664.06;108890;1282;21997;-86
2023/08/23 03:12:07;;;;;;;20.00;7.30;;;;;;;16.90;70.16;100668.17;108746;1282;22465;-85
2023/08/23 03:15:17;;;;;;;14.70;6.80;;;;;;;16.78;70.45;100662.73;108869;1282;22481;-84
2023/08/23 03:18:30;;;;;;;10.90;6.70;;;;;;;16.80;70.60;100671.73;108832;1279;23775;-86
2023/08/23 03:22:08;;;;;;;10.70;8.00;;;;;;;16.69;70.80;100663.70;109225;1279;22000;-86
2023/08/23 03:25:50;;;;;;;14.80;7.40;;;;;;;16.69;70.85;100679.04;108830;1284;23586;-86
2023/08/23 03:28:51;;;;;;;8.70;6.50;;;;;;;16.65;70.95;100686.08;109325;1274;22456;-86
2023/08/23 03:31:55;;;;;;;14.20;7.40;;;;;;;16.63;70.91;100688.86;109346;1274;21983;-85
2023/08/23 03:34:52;;;;;;;11.60;7.50;;;;;;;16.59;71.02;100687.83;109669;1274;22062;-85
2023/08/23 03:37:38;;;;;;;11.50;6.90;;;;;;;16.56;71.10;100690.47;109445;1274;21965;-85
2023/08/23 03:40:33;;;;;;;17.40;12.70;;;;;;;16.55;71.18;100694.56;109314;1274;22166;-85
2023/08/23 03:43:28;;;;;;;11.50;9.70;;;;;;;16.55;71.28;100695.11;109468;1274;23640;-83
2023/08/23 03:46:25;;;;;;;13.80;9.00;;;;;;;16.51;71.50;100691.98;109964;1264;21980;-85
2023/08/23 03:50:09;;;;;;;13.80;10.00;;;;;;;16.49;71.63;100691.41;110012;1268;21985;-84
2023/08/23 03:53:54;;;;;;;;;;;;;;;;;;;;;
2023/08/23 03:57:45;;;;;;;11.40;8.10;;;;;;;16.41;71.62;100692.54;110115;1268;22050;-84
2023/08/23 04:01:07;;;;;;;11.80;8.20;;;;;;;16.37;71.83;100693.46;109370;1266;23094;-86
2023/08/23 04:04:28;;;;;;;10.60;7.10;;;;;;;16.32;71.79;100696.61;109990;1269;21983;-83
2023/08/23 04:07:36;;;;;;;13.50;7.50;;;;;;;16.26;71.83;100695.52;109727;1260;21974;-83
2023/08/23 04:10:47;;;;;;;10.70;7.60;;;;;;;16.33;72.04;100707.06;109164;1276;21983;-83
2023/08/23 04:13:41;;;;;;;11.20;8.20;;;;;;;16.33;72.20;100706.34;108732;1282;22012;-83
2023/08/23 04:17:25;;;;;;;;;;;;;;;;;;;;;
2023/08/23 04:20:48;;;;;;;9.60;7.70;;;;;;;16.36;72.50;100709.16;109169;1276;21988;-84
2023/08/23 04:24:15;;;;;;;;;;;;;;;;;;;;;
2023/08/23 04:27:17;;;;;;;16.80;11.50;;;;;;;16.44;72.62;100706.59;108863;1281;23721;-85
2023/08/23 04:30:21;;;;;;;12.40;10.70;;;;;;;16.50;72.62;100714.86;109249;1276;23726;-83
2023/08/23 04:33:46;;;;;;;15.30;12.20;;;;;;;16.54;72.51;100719.55;109641;1270;22199;-84
2023/08/23 04:37:04;;;;;;;;;;;;;;;;;;;;;
2023/08/23 04:40:15;;;;;;;18.70;16.90;;;;;;;16.59;72.24;100723.52;110279;1267;23028;-84
2023/08/23 04:43:18;;;;;;;17.90;16.10;;;;;;;16.62;72.18;100726.17;110133;1267;23023;-83
2023/08/23 04:46:13;;;;;;;12.80;11.50;;;;;;;16.67;72.44;100728.52;110061;1267;22026;-83
2023/08/23 04:49:00;;;;;;;13.20;9.30;;;;;;;16.74;72.35;100733.04;110102;1267;21991;-82
2023/08/23 04:51:47;;;;;;;9.90;8.40;;;;;;;16.79;72.33;100732.22;109561;1274;21993;-85
2023/08/23 04:54:30;;;;;;;11.80;7.30;;;;;;;16.86;72.35;100730.94;109383;1274;23013;-83
2023/08/23 04:57:33;;;;;;;9.20;7.00;;;;;;;16.91;72.17;100729.95;109385;1275;22083;-81
2023/08/23 05:00:19;;;;;;;11.50;7.00;;;;;;;16.98;72.15;100729.77;109232;1275;21989;-84
2023/08/23 05:02:56;;;;;;;12.50;8.00;;;;;;;17.01;71.73;100730.42;108939;1280;22023;-82
2023/08/23 05:05:41;;;;;;;12.50;7.10;;;;;;;17.05;71.66;100739.52;109217;1277;21982;-83
2023/08/23 05:08:39;;;;;;;14.90;8.50;;;;;;;17.10;71.94;100738.69;109139;1277;21966;-80
2023/08/23 05:11:46;;;;;;;11.00;7.80;;;;;;;17.20;72.11;100735.46;109546;1272;22040;-81
2023/08/23 05:14:39;;;;;;;10.40;8.30;;;;;;;17.30;71.92;100739.28;109131;1276;21949;-80
2023/08/23 05:17:30;;;;;;;11.10;8.00;;;;;;;17.38;71.70;100738.83;109273;1276;23046;-83
2023/08/23 05:20:05;;;;;;;;;;;;;;;17.45;71.58;100737.83;109337;1273;22894;-81
2023/08/23 05:22:46;;;;;;;9.80;8.60;;;;;;;17.45;71.67;100740.34;109453;1273;22430;-81
2023/08/23 05:25:42;;;;;;;10.50;8.10;;;;;;;17.55;71.60;100740.43;109587;1273;22050;-82
2023/08/23 05:28:29;;;;;;;12.70;8.90;;;;;;;17.67;71.35;100745.88;109644;1272;21984;-81
2023/08/23 05:31:17;;;;;;;15.80;9.10;;;;;;;17.78;71.24;100751.33;110182;1261;22311;-83
2023/08/23 05:34:11;;;;;;;10.80;7.60;;;;;;;17.91;70.98;100754.62;111157;1256;21970;-82
2023/08/23 05:36:46;;;;;;;12.10;8.10;;;;;;;18.05;70.89;100755.30;111348;1256;22129;-83
2023/08/23 05:39:24;;;;;;;13.10;8.70;;;;;;;18.22;70.68;100754.64;111462;1256;21947;-81
2023/08/23 05:42:00;;;;;;;17.10;8.80;;;;;;;18.34;70.05;100760.16;111303;1256;23833;-85
2023/08/23 05:44:47;;;;;;;13.60;8.50;;;;;;;18.44;69.74;100764.83;110861;1261;24448;-85
2023/08/23 05:47:22;;;;;;;15.20;8.10;;;;;;;18.55;69.27;100762.06;110982;1261;21970;-82
2023/08/23 05:49:57;;;;;;;13.80;8.40;;;;;;;18.63;69.04;100758.50;110845;1251;23022;-83
2023/08/23 05:52:30;;;;;;;10.00;8.30;;;;;;;18.75;68.95;100760.52;110904;1261;23641;-83
2023/08/23 05:55:07;;;;;;;11.70;8.00;;;;;;;18.89;68.78;100763.33;110787;1261;22731;-85
2023/08/23 05:57:46;;;;;;;11.10;8.10;;;;;;;19.07;68.74;100763.05;110955;1261;21943;-83
2023/08/23 06:00:22;;;;;;;11.80;7.10;;;;;;;19.29;68.59;100761.93;111016;1260;21980;-83
2023/08/23 06:03:02;;;;;;;12.40;7.60;;;;;;;19.49;67.97;100765.70;111177;1256;22727;-84
2023/08/23 06:05:40;;;;;;;8.20;7.10;;;;;;;19.69;67.62;100767.13;111295;1256;21963;-82
2023/08/23 06:08:16;;;;;;;11.40;8.10;;;;;;;19.91;67.26;100765.11;111016;1256;21962;-83
2023/08/23 06:10:54;;;;;;;13.20;7.40;;;;;;;20.20;67.14;100764.08;110979;1256;21989;-82
2023/08/23 06:13:42;;;;;;;15.00;7.80;;;;;;;20.53;66.53;100764.39;111336;1251;21959;-81
2023/08/23 06:16:14;;;;;;;11.80;7.60;;;;;;;20.81;65.24;100768.33;111133;1256;22926;-82
2023/08/23 06:18:58;;;;;;;11.40;8.00;;;;;;;21.13;65.02;100767.58;111471;1255;21965;-82
2023/08/23 06:21:50;;;;;;;8.10;7.00;;;;;;;21.53;64.12;100764.91;110965;1260;22009;-81
2023/08/23 06:24:47;;;;;;;9.70;7.40;;;;;;;21.92;62.99;100760.11;110648;1258;21970;-80
2023/08/23 06:27:41;;;;;;;33.20;9.20;;;;;;;22.36;62.26;100761.77;110484;1264;23590;-83
2023/08/23 06:30:21;;;;;;;12.30;7.50;;;;;;;22.74;61.12;100766.81;110517;1265;22171;-79
2023/08/23 06:33:08;;;;;;;12.00;7.00;;;;;;;23.17;60.06;100771.65;110193;1264;23026;-82
2023/08/23 06:35:45;;;;;;;13.00;6.60;;;;;;;23.49;58.46;100775.66;110333;1260;21993;-86
2023/08/23 06:38:23;;;;;;;12.20;6.70;;;;;;;23.77;57.28;100774.14;109983;1270;22034;-88
2023/08/23 06:40:59;;;;;;;11.40;5.70;;;;;;;24.09;56.77;100774.61;110352;1267;23038;-84
2023/08/23 06:43:36;;;;;;;10.00;5.70;;;;;;;24.50;56.23;100773.30;110635;1264;22004;-82
2023/08/23 06:46:27;;;;;;;13.70;6.00;;;;;;;24.89;54.45;100770.30;110391;1266;22021;-84
2023/08/23 06:49:04;;;;;;;9.00;6.10;;;;;;;25.27;53.69;100772.83;110701;1266;22127;-82
2023/08/23 06:51:35;;;;;;;7.60;5.60;;;;;;;25.66;52.20;100765.65;110364;1266;21932;-83
2023/08/23 06:54:07;;;;;;;10.70;4.60;;;;;;;25.91;50.13;100760.09;110527;1266;22088;-82
2023/08/23 06:56:52;;;;;;;8.30;4.10;;;;;;;26.15;49.11;100760.63;110856;1259;23111;-82
2023/08/23 06:59:29;;;;;;;8.80;4.40;;;;;;;26.40;47.96;100759.96;111124;1260;23042;-81
2023/08/23 07:02:07;;;;;;;8.00;4.10;;;;;;;26.64;47.23;100757.08;111068;1259;21981;-81
2023/08/23 07:04:50;;;;;;;8.20;4.00;;;;;;;26.86;46.49;100761.86;111136;1259;21957;-82
2023/08/23 07:07:44;;;;;;;7.20;3.20;;;;;;;27.09;44.79;100763.80;111236;1259;22976;-79
2023/08/23 07:10:24;;;;;;;6.90;3.40;;;;;;;27.31;43.62;100765.02;110880;1259;22658;-79
2023/08/23 07:13:12;;;;;;;9.30;4.00;;;;;;;27.53;42.67;100766.31;110934;1259;24293;-79
2023/08/23 07:15:49;;;;;;;7.40;3.00;;;;;;;27.71;41.53;100766.11;110781;1259;21959;-78
2023/08/23 07:18:33;;;;;;;6.00;2.90;;;;;;;27.86;40.26;100766.66;110926;1255;23738;-79
2023/08/23 07:21:21;;;;;;;5.30;2.70;;;;;;;27.97;39.39;100770.85;111017;1255;21965;-79
2023/08/23 07:24:13;;;;;;;;;;;;;;;;;;;;;
2023/08/23 07:26:45;;;;;;;6.50;3.10;;;;;;;28.07;38.71;100775.77;111457;1256;23721;-77
2023/08/23 07:29:41;;;;;;;5.40;2.90;;;;;;;28.14;39.09;100768.63;111076;1256;23795;-78
2023/08/23 07:32:21;;;;;;;7.60;3.10;;;;;;;28.28;38.41;100769.85;111228;1255;21956;-77
2023/08/23 07:34:53;;;;;;;7.20;2.80;;;;;;;28.19;37.14;100774.39;111187;1256;22710;-78
2023/08/23 07:38:07;;;;;;;;;;;;;;;;;;;;;
2023/08/23 07:40:58;;;;;;;12.40;3.10;;;;;;;28.19;38.06;100778.11;110723;1260;23689;-77
2023/08/23 07:43:34;;;;;;;5.20;2.70;;;;;;;28.45;37.37;100777.48;110880;1261;21966;-78
2023/08/23 07:46:16;;;;;;;8.50;3.10;;;;;;;28.62;36.19;100778.91;110703;1261;21974;-78
2023/08/23 07:48:55;;;;;;;4.00;3.10;;;;;;;28.68;35.72;100773.23;110244;1265;21969;-78
2023/08/23 07:51:35;;;;;;;7.00;4.00;;;;;;;28.75;35.78;100767.48;110128;1268;22703;-78
2023/08/23 07:54:15;;;;;;;4.60;3.00;;;;;;;28.91;35.68;100766.48;110104;1267;23627;-78
2023/08/23 07:56:50;;;;;;;8.60;2.60;;;;;;;29.03;35.07;100772.15;110500;1262;21967;-77
2023/08/23 07:59:28;;;;;;;5.40;3.30;;;;;;;29.07;34.78;100774.27;110640;1262;24300;-80
2023/08/23 08:02:08;;;;;;;7.20;2.60;;;;;;;29.13;34.05;100777.14;110586;1262;22503;-77
2023/08/23 08:04:56;;;;;;;11.40;3.20;;;;;;;29.17;33.93;100775.48;110000;1268;23052;-78
2023/08/23 08:07:33;;;;;;;6.20;2.70;;;;;;;29.29;34.13;100776.17;109713;1271;21989;-79
2023/08/23 08:10:59;;;;;;;6.20;2.50;;;;;;;29.43;33.30;100781.55;109637;1271;21834;-78
2023/08/23 08:13:36;;;;;;;9.70;3.00;;;;;;;29.46;33.28;100784.43;109675;1270;22196;-77
2023/08/23 08:16:21;;;;;;;5.50;2.70;;;;;;;29.51;33.14;100779.99;109531;1271;22006;-78
2023/08/23 08:19:07;;;;;;;6.60;2.60;;;;;;;29.51;33.43;100783.31;109202;1275;21993;-78
2023/08/23 08:21:53;;;;;;;7.50;2.90;;;;;;;29.64;33.32;100782.65;109087;1275;21981;-79
2023/08/23 08:24:30;;;;;;;3.40;2.20;;;;;;;29.73;32.69;100782.34;109294;1274;24391;-78
2023/08/23 08:27:20;;;;;;;7.60;2.70;;;;;;;29.80;32.31;100781.21;109079;1275;23053;-78
2023/08/23 08:33:35;;;;;;;4.20;2.30;;;;;;;29.84;32.18;100779.70;109387;1274;23054;-79
2023/08/23 08:36:41;;;;;;;7.90;2.30;;;;;;;29.94;32.14;100779.48;109244;1275;22780;-78
2023/08/23 08:39:14;;;;;;;6.10;2.40;;;;;;;29.85;30.78;100780.59;109802;1268;22729;-80
2023/08/23 08:42:08;;;;;;;6.80;2.50;;;;;;;29.50;30.20;100781.36;110122;1262;22111;-80
2023/08/23 08:45:07;;;;;;;5.00;1.90;;;;;;;29.05;30.71;100779.48;110386;1261;21976;-76
2023/08/23 08:47:47;;;;;;;5.80;2.20;;;;;;;29.07;31.46;100779.38;110761;1261;23067;-79
2023/08/23 08:50:47;;;;;;;5.20;2.30;;;;;;;29.26;31.19;100784.30;110322;1266;21988;-79
2023/08/23 08:53:53;;;;;;;8.70;2.40;;;;;;;29.45;31.14;100783.83;110225;1266;21934;-79
2023/08/23 08:57:07;;;;;;;4.60;2.00;;;;;;;29.47;30.56;100787.59;109873;1268;21994;-80
2023/08/23 08:59:42;;;;;;;5.80;1.50;;;;;;;29.38;30.77;100786.08;109908;1269;22016;-80
2023/08/23 09:02:43;;;;;;;4.20;2.30;;;;;;;29.34;30.81;100786.82;109664;1268;22108;-78
2023/08/23 09:05:25;;;;;;;6.30;4.50;;;;;;;29.45;30.94;100789.45;109489;1272;22438;-78
2023/08/23 09:08:13;;;;;;;3.10;1.50;;;;;;;29.49;30.36;100789.84;109626;1269;22709;-77
2023/08/23 09:11:08;;;;;;;4.40;2.00;;;;;;;29.48;30.52;100788.77;109521;1268;22035;-79
2023/08/23 09:14:20;;;;;;;3.60;1.80;;;;;;;29.54;30.95;100784.05;110043;1265;21992;-79
2023/08/23 09:17:00;;;;;;;5.00;2.00;;;;;;;29.64;30.50;100778.34;110317;1265;21975;-77
2023/08/23 09:19:42;;;;;;;4.40;1.60;;;;;;;29.60;30.21;100781.81;109936;1265;21975;-78
2023/08/23 09:22:28;;;;;;;4.10;1.80;;;;;;;29.48;30.44;100786.96;110421;1260;22119;-77
2023/08/23 09:25:09;;;;;;;5.30;2.00;;;;;;;29.50;30.53;100786.14;110868;1255;21962;-80
2023/08/23 09:27:45;;;;;;;5.00;1.90;;;;;;;29.57;30.39;100789.86;111136;1255;22481;-79
2023/08/23 09:30:32;;;;;;;5.30;2.00;;;;;;;29.49;30.10;100787.82;111064;1255;23705;-77
2023/08/23 09:33:10;;;;;;;4.10;2.20;;;;;;;29.46;30.19;100787.70;110969;1255;21954;-79
2023/08/23 09:35:49;;;;;;;17.00;3.20;;;;;;;29.35;30.44;100786.95;111049;1255;21967;-77
2023/08/23 09:38:27;;;;;;;4.10;3.00;;;;;;;29.43;30.72;100790.13;110873;1255;21946;-79
2023/08/23 09:40:58;;;;;;;6.20;2.50;;;;;;;29.44;30.37;100786.76;111210;1256;21968;-79
2023/08/23 09:43:47;;;;;;;;;;;;;;;29.43;31.08;100784.73;110756;1261;23583;-80
2023/08/23 09:46:27;;;;;;;4.30;1.80;;;;;;;29.37;31.26;100787.11;110407;1266;22057;-79
2023/08/23 09:48:58;;;;;;;8.00;2.90;;;;;;;29.41;31.32;100786.84;110514;1267;21982;-79
2023/08/23 09:51:34;;;;;;;;;;;;;;;29.42;31.02;100788.65;109568;1272;21969;-79
2023/08/23 09:54:20;;;;;;;5.00;2.10;;;;;;;29.23;30.63;100790.58;109459;1269;21984;-79
2023/08/23 09:57:18;;;;;;;5.30;1.90;;;;;;;29.07;30.96;100789.05;109543;1272;21993;-78
2023/08/23 09:59:53;;;;;;;7.50;2.70;;;;;;;28.98;31.22;100791.66;109577;1272;21993;-79
2023/08/23 10:02:30;;;;;;;4.30;2.20;;;;;;;28.91;31.32;100791.37;109954;1267;22320;-81
2023/08/23 10:05:16;;;;;;;8.20;2.00;;;;;;;28.84;31.07;100789.98;110202;1262;23265;-79
2023/08/23 10:07:48;;;;;;;3.10;2.00;;;;;;;28.83;31.46;100791.03;110019;1268;21986;-81
2023/08/23 10:10:35;;;;;;;5.60;2.00;;;;;;;28.84;31.48;100790.83;110312;1268;23714;-79
2023/08/23 10:13:08;;;;;;;4.90;2.00;;;;;;;28.88;31.68;100792.94;109978;1268;24577;-80
2023/08/23 10:15:52;;;;;;;12.00;2.40;;;;;;;28.91;31.82;100793.27;110224;1262;21950;-79
2023/08/23 10:18:43;;;;;;;7.90;2.40;;;;;;;28.94;31.80;100787.67;110482;1259;21967;-83
2023/08/23 10:21:16;;;;;;;9.90;2.60;;;;;;;28.93;31.56;100786.26;110678;1262;21986;-81
2023/08/23 10:23:46;;;;;;;7.40;2.10;;;;;;;28.88;31.42;100785.98;109912;1264;22284;-77
2023/08/23 10:26:22;;;;;;;4.40;1.80;;;;;;;28.70;31.34;100787.32;110263;1262;21955;-76
2023/08/23 10:28:54;;;;;;;5.90;1.90;;;;;;;28.56;31.67;100783.38;110382;1262;21997;-77
2023/08/23 10:31:29;;;;;;;3.90;1.90;;;;;;;28.47;31.75;100778.43;110584;1258;21749;-76
2023/08/23 10:34:12;;;;;;;12.20;1.90;;;;;;;28.37;31.81;100775.24;109656;1268;22092;-77
2023/08/23 10:36:48;;;;;;;5.50;1.90;;;;;;;28.37;31.99;100775.84;109049;1275;23768;-79
2023/08/23 10:39:24;;;;;;;1.90;1.30;;;;;;;28.36;31.81;100774.16;108979;1275;21994;-77
2023/08/23 10:42:05;;;;;;;6.80;2.40;;;;;;;28.33;32.15;100769.80;109123;1275;22742;-79
2023/08/23 10:45:05;;;;;;;7.40;1.90;;;;;;;28.32;31.94;100767.06;109015;1275;24460;-77
2023/08/23 10:47:37;;;;;;;8.30;1.50;;;;;;;28.30;32.10;100765.80;109080;1269;22011;-77
2023/08/23 10:50:07;;;;;;;8.80;1.70;;;;;;;28.27;31.83;100761.48;110035;1266;23220;-76
2023/08/23 10:52:38;;;;;;;5.80;1.50;;;;;;;28.27;31.67;100760.48;110403;1261;22009;-76
2023/08/23 10:55:08;;;;;;;5.40;1.60;;;;;;;28.20;31.62;100760.27;110900;1255;21962;-79
2023/08/23 10:57:37;;;;;;;2.60;1.60;;;;;;;28.09;31.87;100759.70;110936;1255;23077;-77
2023/08/23 11:00:13;;;;;;;6.00;2.40;;;;;;;27.96;31.88;100754.92;111032;1255;24100;-76
2023/08/23 11:02:43;;;;;;;4.40;1.80;;;;;;;27.87;32.02;100748.89;111232;1245;23122;-78
2023/08/23 11:05:14;;;;;;;3.40;1.80;;;;;;;27.81;32.23;100741.08;111168;1255;23597;-79
2023/08/23 11:07:47;;;;;;;5.10;1.90;;;;;;;27.86;32.31;100747.17;110703;1260;23110;-77
2023/08/23 11:10:19;;;;;;;3.20;1.80;;;;;;;27.81;32.09;100741.83;110629;1260;22045;-79
2023/08/23 11:12:55;;;;;;;3.60;1.20;;;;;;;27.76;32.18;100739.98;110717;1260;21968;-75
2023/08/23 11:15:30;;;;;;;4.70;2.80;;;;;;;27.70;32.74;100737.61;110839;1260;24337;-79
2023/08/23 11:18:03;;;;;;;6.80;2.20;;;;;;;27.60;32.65;100741.28;110551;1260;21970;-76
2023/08/23 11:20:44;;;;;;;;;;;;;;;;;;;;;
2023/08/23 11:23:14;;;;;;;6.50;1.80;;;;;;;27.42;32.94;100740.64;110646;1260;22828;-78
2023/08/23 11:25:46;;;;;;;;;;;;;;;27.41;33.15;100745.23;110812;1255;22142;-76
2023/08/23 11:28:19;;;;;;;4.60;2.50;;;;;;;27.31;33.43;100740.39;111385;1255;23059;-76
2023/08/23 11:30:54;;;;;;;49.70;6.80;;;;;;;27.26;33.39;100737.34;110685;1260;22266;-75
2023/08/23 11:33:26;;;;;;;9.20;2.10;;;;;;;27.12;33.45;100728.16;110817;1260;21982;-77
2023/08/23 11:35:55;;;;;;;9.10;6.10;;;;;;;27.04;33.87;100725.59;110687;1260;22666;-77
2023/08/23 11:38:33;;;;;;;5.00;2.30;;;;;;;27.07;34.13;100727.45;111260;1257;21932;-77
2023/08/23 11:41:09;;;;;;;3.20;1.90;;;;;;;27.06;33.99;100721.39;110601;1260;21979;-77
2023/08/23 11:43:48;;;;;;;3.70;1.90;;;;;;;27.04;34.27;100718.45;110650;1260;23772;-77
2023/08/23 11:46:22;;;;;;;4.90;2.10;;;;;;;26.98;34.39;100716.92;110281;1266;22016;-75
2023/08/23 11:48:54;;;;;;;7.00;2.20;;;;;;;26.99;34.51;100713.78;109412;1268;21972;-77
2023/08/23 11:51:23;;;;;;;6.60;2.30;;;;;;;26.98;34.47;100706.75;109886;1268;23609;-77
2023/08/23 11:53:56;;;;;;;3.70;1.50;;;;;;;27.01;34.53;100707.71;109499;1273;22119;-77
2023/08/23 11:56:29;;;;;;;8.70;2.90;;;;;;;27.03;34.71;100710.19;109399;1272;24291;-76
2023/08/23 11:58:58;;;;;;;6.50;1.60;;;;;;;27.07;34.82;100713.71;109610;1272;22102;-77
2023/08/23 12:01:34;;;;;;;16.20;1.30;;;;;;;27.11;34.71;100714.65;109984;1272;22428;-79
2023/08/23 12:04:28;;;;;;;4.10;1.60;;;;;;;27.14;34.97;100714.20;109610;1266;320409;-77
2023/08/23 12:07:00;;;;;;;6.90;2.30;;;;;;;27.20;35.13;100714.67;110702;1261;21960;-79
2023/08/23 12:09:39;;;;;;;7.50;2.00;;;;;;;27.24;34.96;100714.98;111281;1260;21966;-78
2023/08/23 12:12:19;;;;;;;6.70;1.70;;;;;;;27.26;34.77;100716.20;110329;1267;21943;-79
2023/08/23 12:15:13;;;;;;;3.20;1.30;;;;;;;27.27;34.74;100716.48;110346;1266;22898;-81
2023/08/23 12:17:43;;;;;;;5.00;1.60;;;;;;;27.27;34.49;100720.44;110315;1262;21973;-77
2023/08/23 12:20:27;;;;;;;5.00;2.10;;;;;;;27.27;34.40;100718.79;110741;1262;22434;-80
2023/08/23 12:23:22;;;;;;;9.60;1.90;;;;;;;27.26;34.12;100719.11;110849;1261;21967;-83
2023/08/23 12:26:02;;;;;;;4.40;1.20;;;;;;;27.27;33.90;100720.95;110966;1254;21955;-79
2023/08/23 12:28:55;;;;;;;3.70;1.20;;;;;;;27.30;33.78;100723.67;111318;1261;21957;-77
2023/08/23 12:31:41;;;;;;;5.00;1.50;;;;;;;27.28;33.84;100722.96;111384;1255;22011;-80
2023/08/23 12:34:22;;;;;;;3.10;1.60;;;;;;;27.29;34.06;100721.60;111459;1255;21960;-77
2023/08/23 12:37:07;;;;;;;5.60;1.70;;;;;;;27.30;34.23;100721.50;111246;1258;21960;-79
2023/08/23 12:39:53;;;;;;;3.00;1.60;;;;;;;27.32;34.68;100717.90;111680;1257;21956;-77
2023/08/23 12:42:56;;;;;;;7.00;2.30;;;;;;;27.35;34.88;100717.27;111141;1262;22900;-80
2023/08/23 12:46:12;;;;;;;4.70;1.80;;;;;;;27.33;34.54;100717.12;110208;1268;21929;-80
2023/08/23 12:52:13;;;;;;;3.30;1.70;;;;;;;27.12;34.53;100712.24;109034;1279;21993;-78
2023/08/23 12:54:50;;;;;;;7.70;2.10;;;;;;;27.08;34.51;100708.98;108540;1284;22016;-78
2023/08/23 12:57:26;;;;;;;2.90;1.50;;;;;;;27.00;34.87;100701.04;108499;1283;22008;-78
2023/08/23 13:00:00;;;;;;;3.50;2.50;;;;;;;27.05;34.74;100704.05;108495;1273;22038;-78
2023/08/23 13:02:58;;;;;;;4.10;1.70;;;;;;;27.06;35.14;100697.73;108565;1284;24334;-82
2023/08/23 13:05:46;;;;;;;5.00;2.80;;;;;;;27.06;35.27;100701.05;108501;1284;22000;-79
2023/08/23 13:08:40;;;;;;;3.80;2.10;;;;;;;27.08;35.22;100700.70;108848;1280;22166;-81
2023/08/23 13:11:27;;;;;;;5.90;2.00;;;;;;;27.08;35.10;100697.27;109078;1275;22447;-81
2023/08/23 13:14:13;;;;;;;2.60;1.50;;;;;;;27.06;35.31;100696.23;109326;1271;23599;-78
2023/08/23 13:16:47;;;;;;;7.30;2.60;;;;;;;27.06;35.61;100694.52;109951;1270;21983;-79
2023/08/23 13:19:31;;;;;;;10.00;2.10;;;;;;;27.08;35.93;100695.84;109347;1275;22017;-79
2023/08/23 13:22:12;;;;;;;5.40;1.60;;;;;;;27.15;36.11;100699.13;109621;1268;23063;-80
2023/08/23 13:24:45;;;;;;;3.00;1.60;;;;;;;27.18;35.79;100700.96;109532;1273;22003;-79
2023/08/23 13:27:17;;;;;;;3.50;2.10;;;;;;;27.19;35.59;100699.96;109139;1276;22968;-79
2023/08/23 13:29:47;;;;;;;5.90;2.30;;;;;;;27.18;35.59;100702.31;109010;1276;23720;-78
2023/08/23 13:32:29;;;;;;;5.30;2.80;;;;;;;27.15;35.36;100702.30;109305;1272;21989;-78
2023/08/23 13:35:05;;;;;;;4.50;2.00;;;;;;;27.07;35.21;100695.47;109432;1271;22484;-77
2023/08/23 13:37:39;;;;;;;6.60;2.00;;;;;;;26.99;35.29;100691.85;109695;1264;21984;-79
2023/08/23 13:40:21;;;;;;;5.50;1.70;;;;;;;26.95;35.39;100689.59;109903;1265;23795;-79
2023/08/23 13:43:06;;;;;;;9.70;1.80;;;;;;;26.93;35.61;100688.48;110088;1259;21986;-77
2023/08/23 13:45:51;;;;;;;7.20;2.10;;;;;;;26.93;35.76;100679.77;110679;1262;23731;-80
2023/08/23 13:48:26;;;;;;;2.40;1.30;;;;;;;26.95;35.63;100681.30;110461;1262;22907;-78
2023/08/23 13:51:16;;;;;;;;;;;;;;;26.96;35.77;100683.90;110765;1255;21949;-78
2023/08/23 13:54:20;;;;;;;4.80;2.60;;;;;;;26.90;35.75;100678.27;111321;1254;21967;-81